createdAt,value
2017-12-16T00:00:13.616Z,8.5
2017-12-16T00:00:54.231Z,8.52
2017-12-16T00:01:34.696Z,8.43
2017-12-16T00:02:15.239Z,8.52
2017-12-16T00:02:55.765Z,8.53
2017-12-16T00:03:36.377Z,8.68
2017-12-16T00:04:16.933Z,8.55
2017-12-16T00:04:57.421Z,8.44
2017-12-16T00:05:38.096Z,8.34
2017-12-16T00:06:18.653Z,8.4
2017-12-16T00:06:59.187Z,8.43
2017-12-16T00:07:39.793Z,8.3
2017-12-16T00:08:20.327Z,8.29
2017-12-16T00:09:01.042Z,8.4
2017-12-16T00:09:41.579Z,8.33
2017-12-16T00:10:22.133Z,8.33
2017-12-16T00:11:02.680Z,8.4
2017-12-16T00:11:43.289Z,8.37
2017-12-16T00:12:23.861Z,8.41
2017-12-16T00:13:04.425Z,8.34
2017-12-16T00:13:45.004Z,8.43
2017-12-16T00:14:25.662Z,8.37
2017-12-16T00:15:06.243Z,8.38
2017-12-16T00:15:46.770Z,8.38
2017-12-16T00:16:27.294Z,8.4
2017-12-16T00:17:07.855Z,8.41
2017-12-16T00:17:48.604Z,8.41
2017-12-16T00:18:29.167Z,8.43
2017-12-16T00:19:09.697Z,8.36
2017-12-16T00:19:50.308Z,8.38
2017-12-16T00:20:30.968Z,8.37
2017-12-16T00:21:11.758Z,8.26
2017-12-16T00:21:52.464Z,8.38
2017-12-16T00:22:33.080Z,8.37
2017-12-16T00:23:13.600Z,8.25
2017-12-16T00:23:54.128Z,8.37
2017-12-16T00:24:34.690Z,8.28
2017-12-16T00:25:15.207Z,8.26
2017-12-16T00:25:55.727Z,8.3
2017-12-16T00:26:36.298Z,8.41
2017-12-16T00:27:16.828Z,8.43
2017-12-16T00:27:57.440Z,8.41
2017-12-16T00:28:37.942Z,8.47
2017-12-16T00:29:18.533Z,8.47
2017-12-16T00:29:59.024Z,8.53
2017-12-16T00:30:39.607Z,8.53
2017-12-16T00:31:20.206Z,8.56
2017-12-16T00:32:00.754Z,8.61
2017-12-16T00:32:41.307Z,8.56
2017-12-16T00:33:21.878Z,8.58
2017-12-16T00:34:02.408Z,8.45
2017-12-16T00:34:42.897Z,8.52
2017-12-16T00:35:23.488Z,8.45
2017-12-16T00:36:04.008Z,8.47
2017-12-16T00:36:44.559Z,8.38
2017-12-16T00:37:25.067Z,8.3
2017-12-16T00:38:05.612Z,8.37
2017-12-16T00:38:46.181Z,8.37
2017-12-16T00:39:26.709Z,8.45
2017-12-16T00:40:07.316Z,8.45
2017-12-16T00:40:47.942Z,8.56
2017-12-16T00:41:28.484Z,8.52
2017-12-16T00:42:09.046Z,8.53
2017-12-16T00:42:49.546Z,8.28
2017-12-16T00:43:30.088Z,8.37
2017-12-16T00:44:10.649Z,8.44
2017-12-16T00:44:51.167Z,8.45
2017-12-16T00:45:31.728Z,8.62
2017-12-16T00:46:12.829Z,8.59
2017-12-16T00:46:53.348Z,8.58
2017-12-16T00:47:33.928Z,8.47
2017-12-16T00:48:14.448Z,8.44
2017-12-16T00:48:54.981Z,8.44
2017-12-16T00:49:35.506Z,8.48
2017-12-16T00:50:16.084Z,8.48
2017-12-16T00:50:56.569Z,8.58
2017-12-16T00:51:37.091Z,8.58
2017-12-16T00:52:17.578Z,8.71
2017-12-16T00:52:58.127Z,8.65
2017-12-16T00:53:38.710Z,8.7
2017-12-16T00:54:19.219Z,8.58
2017-12-16T00:54:59.813Z,8.52
2017-12-16T00:55:40.294Z,8.52
2017-12-16T00:56:20.834Z,8.58
2017-12-16T00:57:01.392Z,8.55
2017-12-16T00:57:41.950Z,8.62
2017-12-16T00:58:22.505Z,8.73
2017-12-16T00:59:03.068Z,8.73
2017-12-16T00:59:43.602Z,8.65
2017-12-16T01:00:24.174Z,8.56
2017-12-16T01:01:04.641Z,8.56
2017-12-16T01:01:45.183Z,8.52
2017-12-16T01:02:25.796Z,8.52
2017-12-16T01:03:06.327Z,8.48
2017-12-16T01:03:46.849Z,8.52
2017-12-16T01:04:27.391Z,8.47
2017-12-16T01:05:07.994Z,8.59
2017-12-16T01:05:48.501Z,8.63
2017-12-16T01:06:29.067Z,8.74
2017-12-16T01:07:09.573Z,8.63
2017-12-16T01:07:50.127Z,8.59
2017-12-16T01:08:30.737Z,8.66
2017-12-16T01:09:11.276Z,8.7
2017-12-16T01:09:51.772Z,8.71
2017-12-16T01:10:32.398Z,8.66
2017-12-16T01:11:12.895Z,8.68
2017-12-16T01:11:53.418Z,8.76
2017-12-16T01:12:34.011Z,8.8
2017-12-16T01:13:14.492Z,8.65
2017-12-16T01:13:55.047Z,8.62
2017-12-16T01:14:35.593Z,8.56
2017-12-16T01:15:16.110Z,8.7
2017-12-16T01:15:56.730Z,8.73
2017-12-16T01:16:37.303Z,8.77
2017-12-16T01:17:17.817Z,8.83
2017-12-16T01:17:58.286Z,8.65
2017-12-16T01:18:38.845Z,8.74
2017-12-16T01:19:19.432Z,8.66
2017-12-16T01:19:59.921Z,8.63
2017-12-16T01:20:40.431Z,8.55
2017-12-16T01:21:21.023Z,8.71
2017-12-16T01:22:01.578Z,8.61
2017-12-16T01:22:42.091Z,8.73
2017-12-16T01:23:22.640Z,8.74
2017-12-16T01:24:03.197Z,8.71
2017-12-16T01:24:43.739Z,8.71
2017-12-16T01:25:24.293Z,8.76
2017-12-16T01:26:04.867Z,8.73
2017-12-16T01:26:45.464Z,8.8
2017-12-16T01:27:26.122Z,8.7
2017-12-16T01:28:06.568Z,8.71
2017-12-16T01:28:47.211Z,8.79
2017-12-16T01:29:27.728Z,8.8
2017-12-16T01:30:08.386Z,8.79
2017-12-16T01:30:48.849Z,8.73
2017-12-16T01:31:29.508Z,8.65
2017-12-16T01:32:10.049Z,8.76
2017-12-16T01:32:50.636Z,8.74
2017-12-16T01:33:31.162Z,8.55
2017-12-16T01:34:11.734Z,8.48
2017-12-16T01:34:52.297Z,8.47
2017-12-16T01:35:32.807Z,8.48
2017-12-16T01:36:13.362Z,8.62
2017-12-16T01:36:53.873Z,8.58
2017-12-16T01:37:34.412Z,8.66
2017-12-16T01:38:15.085Z,8.58
2017-12-16T01:38:55.629Z,8.62
2017-12-16T01:39:36.165Z,8.59
2017-12-16T01:40:16.760Z,8.56
2017-12-16T01:40:57.299Z,8.58
2017-12-16T01:41:37.872Z,8.5
2017-12-16T01:42:18.461Z,8.71
2017-12-16T01:42:59.066Z,8.59
2017-12-16T01:43:39.662Z,8.55
2017-12-16T01:44:20.189Z,8.68
2017-12-16T01:45:00.694Z,8.56
2017-12-16T01:45:41.258Z,8.61
2017-12-16T01:46:22.608Z,8.59
2017-12-16T01:47:03.157Z,8.59
2017-12-16T01:47:43.690Z,8.56
2017-12-16T01:48:24.205Z,8.53
2017-12-16T01:49:04.750Z,8.58
2017-12-16T01:49:45.317Z,8.53
2017-12-16T01:50:25.868Z,8.63
2017-12-16T01:51:06.379Z,8.63
2017-12-16T01:51:46.935Z,8.59
2017-12-16T01:52:27.512Z,8.62
2017-12-16T01:53:08.152Z,8.68
2017-12-16T01:53:48.733Z,8.58
2017-12-16T01:54:29.395Z,8.59
2017-12-16T01:55:10.007Z,8.55
2017-12-16T01:55:50.625Z,8.5
2017-12-16T01:56:31.203Z,8.58
2017-12-16T01:57:11.799Z,8.61
2017-12-16T01:57:52.477Z,8.58
2017-12-16T01:58:33.116Z,8.5
2017-12-16T01:59:13.712Z,8.45
2017-12-16T01:59:54.394Z,8.58
2017-12-16T02:00:34.963Z,8.56
2017-12-16T02:01:15.494Z,8.52
2017-12-16T02:01:56.130Z,8.4
2017-12-16T02:02:36.771Z,8.44
2017-12-16T02:03:17.471Z,8.55
2017-12-16T02:03:58.378Z,8.55
2017-12-16T02:04:38.965Z,8.66
2017-12-16T02:05:19.520Z,8.62
2017-12-16T02:06:00.081Z,8.63
2017-12-16T02:06:40.786Z,8.77
2017-12-16T02:07:21.369Z,8.63
2017-12-16T02:08:01.924Z,8.7
2017-12-16T02:08:42.466Z,8.71
2017-12-16T02:09:23.002Z,8.66
2017-12-16T02:10:03.543Z,8.65
2017-12-16T02:10:44.239Z,8.74
2017-12-16T02:11:24.920Z,8.7
2017-12-16T02:12:05.729Z,8.62
2017-12-16T02:12:46.401Z,8.66
2017-12-16T02:13:27.091Z,8.53
2017-12-16T02:14:07.968Z,8.65
2017-12-16T02:14:48.559Z,8.66
2017-12-16T02:15:29.205Z,8.63
2017-12-16T02:16:09.852Z,8.55
2017-12-16T02:16:50.365Z,8.58
2017-12-16T02:17:30.899Z,8.63
2017-12-16T02:18:11.515Z,8.71
2017-12-16T02:18:52.051Z,8.68
2017-12-16T02:19:32.652Z,8.56
2017-12-16T02:20:13.181Z,8.73
2017-12-16T02:20:53.714Z,8.68
2017-12-16T02:21:34.245Z,8.65
2017-12-16T02:22:14.835Z,8.68
2017-12-16T02:22:55.368Z,8.58
2017-12-16T02:23:36.021Z,8.65
2017-12-16T02:24:16.552Z,8.43
2017-12-16T02:24:57.125Z,8.53
2017-12-16T02:25:37.660Z,8.58
2017-12-16T02:26:18.171Z,8.47
2017-12-16T02:26:58.732Z,8.47
2017-12-16T02:27:39.637Z,8.45
2017-12-16T02:28:19.969Z,8.41
2017-12-16T02:29:00.506Z,8.48
2017-12-16T02:29:41.008Z,8.47
2017-12-16T02:30:21.549Z,8.4
2017-12-16T02:31:02.071Z,8.52
2017-12-16T02:31:42.672Z,8.55
2017-12-16T02:32:23.220Z,8.7
2017-12-16T02:33:03.824Z,8.65
2017-12-16T02:33:44.259Z,8.68
2017-12-16T02:34:24.804Z,8.5
2017-12-16T02:35:05.416Z,8.52
2017-12-16T02:35:46.086Z,8.62
2017-12-16T02:36:26.586Z,8.59
2017-12-16T02:37:07.169Z,8.68
2017-12-16T02:37:47.660Z,8.58
2017-12-16T02:38:28.234Z,8.62
2017-12-16T02:39:08.810Z,8.62
2017-12-16T02:39:49.316Z,8.71
2017-12-16T02:40:29.864Z,8.7
2017-12-16T02:41:10.453Z,8.65
2017-12-16T02:41:50.980Z,8.63
2017-12-16T02:42:31.518Z,8.7
2017-12-16T02:43:12.199Z,8.66
2017-12-16T02:43:52.797Z,8.61
2017-12-16T02:44:33.344Z,8.62
2017-12-16T02:45:13.996Z,8.59
2017-12-16T02:45:54.601Z,8.63
2017-12-16T02:46:35.246Z,8.68
2017-12-16T02:47:15.808Z,8.65
2017-12-16T02:47:56.389Z,8.62
2017-12-16T02:48:36.955Z,8.71
2017-12-16T02:49:17.469Z,8.65
2017-12-16T02:49:58.038Z,8.77
2017-12-16T02:50:38.556Z,8.79
2017-12-16T02:51:19.093Z,8.74
2017-12-16T02:51:59.639Z,8.65
2017-12-16T02:52:40.191Z,8.63
2017-12-16T02:53:20.749Z,8.77
2017-12-16T02:54:01.274Z,8.7
2017-12-16T02:54:41.783Z,8.63
2017-12-16T02:55:22.286Z,8.71
2017-12-16T02:56:03.739Z,8.8
2017-12-16T02:56:43.346Z,8.84
2017-12-16T02:57:23.945Z,8.86
2017-12-16T02:58:04.480Z,8.84
2017-12-16T02:58:44.983Z,8.73
2017-12-16T02:59:25.565Z,8.77
2017-12-16T03:00:06.066Z,8.68
2017-12-16T03:00:46.586Z,8.71
2017-12-16T03:01:27.172Z,8.74
2017-12-16T03:02:07.700Z,8.63
2017-12-16T03:02:48.282Z,8.63
2017-12-16T03:03:28.788Z,8.66
2017-12-16T03:04:09.344Z,8.65
2017-12-16T03:04:49.842Z,8.66
2017-12-16T03:05:30.480Z,8.55
2017-12-16T03:06:10.994Z,8.71
2017-12-16T03:06:51.558Z,8.66
2017-12-16T03:07:32.084Z,8.84
2017-12-16T03:08:12.613Z,8.71
2017-12-16T03:08:53.164Z,8.63
2017-12-16T03:09:33.667Z,8.65
2017-12-16T03:10:14.230Z,8.71
2017-12-16T03:10:54.730Z,8.74
2017-12-16T03:11:35.313Z,8.63
2017-12-16T03:12:15.803Z,8.66
2017-12-16T03:12:56.348Z,8.61
2017-12-16T03:13:36.855Z,8.58
2017-12-16T03:14:17.340Z,8.56
2017-12-16T03:14:57.945Z,8.61
2017-12-16T03:15:38.452Z,8.58
2017-12-16T03:16:19.002Z,8.71
2017-12-16T03:16:59.545Z,8.55
2017-12-16T03:17:40.069Z,8.56
2017-12-16T03:18:20.555Z,8.53
2017-12-16T03:19:01.202Z,8.62
2017-12-16T03:19:41.680Z,8.62
2017-12-16T03:20:22.181Z,8.63
2017-12-16T03:21:02.736Z,8.59
2017-12-16T03:21:43.312Z,8.56
2017-12-16T03:22:23.901Z,8.58
2017-12-16T03:23:04.381Z,8.47
2017-12-16T03:23:44.948Z,8.45
2017-12-16T03:24:25.501Z,8.38
2017-12-16T03:25:06.040Z,8.52
2017-12-16T03:25:46.574Z,8.62
2017-12-16T03:26:27.149Z,8.56
2017-12-16T03:27:07.718Z,8.55
2017-12-16T03:27:48.238Z,8.61
2017-12-16T03:28:28.799Z,8.59
2017-12-16T03:29:09.333Z,8.61
2017-12-16T03:29:49.905Z,8.74
2017-12-16T03:30:30.397Z,8.71
2017-12-16T03:31:10.939Z,8.58
2017-12-16T03:31:51.463Z,8.43
2017-12-16T03:32:32.099Z,8.41
2017-12-16T03:33:12.628Z,8.45
2017-12-16T03:33:53.183Z,8.53
2017-12-16T03:34:33.712Z,8.56
2017-12-16T03:35:14.256Z,8.68
2017-12-16T03:35:54.794Z,8.58
2017-12-16T03:36:35.288Z,8.65
2017-12-16T03:37:15.808Z,8.71
2017-12-16T03:37:56.361Z,8.55
2017-12-16T03:38:36.968Z,8.61
2017-12-16T03:39:17.508Z,8.61
2017-12-16T03:39:58.035Z,8.74
2017-12-16T03:40:38.585Z,8.63
2017-12-16T03:41:19.150Z,8.71
2017-12-16T03:41:59.712Z,8.86
2017-12-16T03:42:40.234Z,8.71
2017-12-16T03:43:20.783Z,8.63
2017-12-16T03:44:01.302Z,8.53
2017-12-16T03:44:41.867Z,8.56
2017-12-16T03:45:22.361Z,8.56
2017-12-16T03:46:02.867Z,8.68
2017-12-16T03:46:43.424Z,8.55
2017-12-16T03:47:24.020Z,8.68
2017-12-16T03:48:04.559Z,8.63
2017-12-16T03:48:45.061Z,8.68
2017-12-16T03:49:25.620Z,8.76
2017-12-16T03:50:06.131Z,8.81
2017-12-16T03:50:46.664Z,8.74
2017-12-16T03:51:27.218Z,8.83
2017-12-16T03:52:07.765Z,8.8
2017-12-16T03:52:48.272Z,8.79
2017-12-16T03:53:28.818Z,8.81
2017-12-16T03:54:09.435Z,8.79
2017-12-16T03:54:49.979Z,8.89
2017-12-16T03:55:30.487Z,8.81
2017-12-16T03:56:11.019Z,8.81
2017-12-16T03:56:51.570Z,8.65
2017-12-16T03:57:32.084Z,8.84
2017-12-16T03:58:12.669Z,8.84
2017-12-16T03:58:53.166Z,8.86
2017-12-16T03:59:33.703Z,8.73
2017-12-16T04:00:14.195Z,8.83
2017-12-16T04:00:54.794Z,8.76
2017-12-16T04:01:35.506Z,8.74
2017-12-16T04:02:16.027Z,8.79
2017-12-16T04:02:56.751Z,8.79
2017-12-16T04:03:37.356Z,8.91
2017-12-16T04:04:17.858Z,8.81
2017-12-16T04:04:58.492Z,8.92
2017-12-16T04:05:39.044Z,8.96
2017-12-16T04:06:19.568Z,8.95
2017-12-16T04:07:00.134Z,8.91
2017-12-16T04:07:40.668Z,8.92
2017-12-16T04:08:21.273Z,8.95
2017-12-16T04:09:01.760Z,8.95
2017-12-16T04:09:42.349Z,8.98
2017-12-16T04:10:22.886Z,8.98
2017-12-16T04:11:03.430Z,8.92
2017-12-16T04:11:44.012Z,8.84
2017-12-16T04:12:24.521Z,8.91
2017-12-16T04:13:05.092Z,8.95
2017-12-16T04:13:45.647Z,8.81
2017-12-16T04:14:26.230Z,8.94
2017-12-16T04:15:06.739Z,8.87
2017-12-16T04:15:47.263Z,8.96
2017-12-16T04:16:27.789Z,8.99
2017-12-16T04:17:08.310Z,9.08
2017-12-16T04:17:48.913Z,9.01
2017-12-16T04:18:29.399Z,9.02
2017-12-16T04:19:09.920Z,8.98
2017-12-16T04:19:50.531Z,8.92
2017-12-16T04:20:31.026Z,8.98
2017-12-16T04:21:11.594Z,8.99
2017-12-16T04:21:52.132Z,9.01
2017-12-16T04:22:32.692Z,9.02
2017-12-16T04:23:14.103Z,9.02
2017-12-16T04:23:54.665Z,9.1
2017-12-16T04:24:35.207Z,9.04
2017-12-16T04:25:15.826Z,9.14
2017-12-16T04:25:56.394Z,9.14
2017-12-16T04:26:36.920Z,9.13
2017-12-16T04:27:17.478Z,9.17
2017-12-16T04:27:58.018Z,9.21
2017-12-16T04:28:38.590Z,9.1
2017-12-16T04:29:19.127Z,9.11
2017-12-16T04:29:59.714Z,9.18
2017-12-16T04:30:40.227Z,9.21
2017-12-16T04:31:20.787Z,9.11
2017-12-16T04:32:01.373Z,9.1
2017-12-16T04:32:41.900Z,9.08
2017-12-16T04:33:22.434Z,9.04
2017-12-16T04:34:03.063Z,9.02
2017-12-16T04:34:43.652Z,9.15
2017-12-16T04:35:24.713Z,9.04
2017-12-16T04:36:05.268Z,9.04
2017-12-16T04:36:45.812Z,9.04
2017-12-16T04:37:26.362Z,9.01
2017-12-16T04:38:06.911Z,9.14
2017-12-16T04:38:47.465Z,9.02
2017-12-16T04:39:28.070Z,9.04
2017-12-16T04:40:08.596Z,8.96
2017-12-16T04:40:49.140Z,9.08
2017-12-16T04:41:29.675Z,9.04
2017-12-16T04:42:10.224Z,8.95
2017-12-16T04:42:50.881Z,8.99
2017-12-16T04:43:31.839Z,9.02
2017-12-16T04:44:12.581Z,9.02
2017-12-16T04:44:53.125Z,8.96
2017-12-16T04:45:33.734Z,8.92
2017-12-16T04:46:14.222Z,8.83
2017-12-16T04:46:54.795Z,8.84
2017-12-16T04:47:35.299Z,9.01
2017-12-16T04:48:15.951Z,9.02
2017-12-16T04:48:56.505Z,8.95
2017-12-16T04:49:37.242Z,8.96
2017-12-16T04:50:17.775Z,8.94
2017-12-16T04:50:58.383Z,9.08
2017-12-16T04:51:38.951Z,9.04
2017-12-16T04:52:19.481Z,9.14
2017-12-16T04:53:00.000Z,9.17
2017-12-16T04:53:40.560Z,9.17
2017-12-16T04:54:21.136Z,9.14
2017-12-16T04:55:01.834Z,9.11
2017-12-16T04:55:42.492Z,9.05
2017-12-16T04:56:23.336Z,9.13
2017-12-16T04:57:04.014Z,9.14
2017-12-16T04:57:44.756Z,9.21
2017-12-16T04:58:25.544Z,9.14
2017-12-16T04:59:06.086Z,9.08
2017-12-16T04:59:46.715Z,9.13
2017-12-16T05:00:27.320Z,9.15
2017-12-16T05:01:07.910Z,9.17
2017-12-16T05:01:48.417Z,9.13
2017-12-16T05:02:29.009Z,9.15
2017-12-16T05:03:09.532Z,9.14
2017-12-16T05:03:50.055Z,9.21
2017-12-16T05:04:30.584Z,9.08
2017-12-16T05:05:11.146Z,8.92
2017-12-16T05:05:51.635Z,8.99
2017-12-16T05:06:32.178Z,9.08
2017-12-16T05:07:12.811Z,9.14
2017-12-16T05:07:53.330Z,9.01
2017-12-16T05:08:33.860Z,9.01
2017-12-16T05:09:14.363Z,8.99
2017-12-16T05:09:54.876Z,8.89
2017-12-16T05:10:35.415Z,8.94
2017-12-16T05:11:16.002Z,8.95
2017-12-16T05:11:56.497Z,9.01
2017-12-16T05:12:37.072Z,9.08
2017-12-16T05:13:17.619Z,9.08
2017-12-16T05:13:58.136Z,9.04
2017-12-16T05:14:38.696Z,8.94
2017-12-16T05:15:19.188Z,8.83
2017-12-16T05:15:59.748Z,8.86
2017-12-16T05:16:40.272Z,8.84
2017-12-16T05:17:20.777Z,8.83
2017-12-16T05:18:01.326Z,8.91
2017-12-16T05:18:41.928Z,8.98
2017-12-16T05:19:22.395Z,8.8
2017-12-16T05:20:02.917Z,8.95
2017-12-16T05:20:43.552Z,8.98
2017-12-16T05:21:24.010Z,8.81
2017-12-16T05:22:05.487Z,8.83
2017-12-16T05:22:45.987Z,8.92
2017-12-16T05:23:26.491Z,8.92
2017-12-16T05:24:07.077Z,8.92
2017-12-16T05:24:47.633Z,8.94
2017-12-16T05:25:28.187Z,8.98
2017-12-16T05:26:08.752Z,8.92
2017-12-16T05:26:49.330Z,8.92
2017-12-16T05:27:29.952Z,8.95
2017-12-16T05:28:11.285Z,8.96
2017-12-16T05:28:51.894Z,8.83
2017-12-16T05:29:32.524Z,8.89
2017-12-16T05:30:13.236Z,8.99
2017-12-16T05:30:53.795Z,8.77
2017-12-16T05:31:34.371Z,8.81
2017-12-16T05:32:14.949Z,8.74
2017-12-16T05:32:55.588Z,8.79
2017-12-16T05:33:36.345Z,8.86
2017-12-16T05:34:16.963Z,8.81
2017-12-16T05:34:57.467Z,8.71
2017-12-16T05:35:38.153Z,8.84
2017-12-16T05:36:18.787Z,8.83
2017-12-16T05:36:59.389Z,8.81
2017-12-16T05:37:40.144Z,8.8
2017-12-16T05:38:20.835Z,8.81
2017-12-16T05:39:01.453Z,8.76
2017-12-16T05:39:42.962Z,8.8
2017-12-16T05:40:23.621Z,8.81
2017-12-16T05:41:04.399Z,8.83
2017-12-16T05:41:44.930Z,8.86
2017-12-16T05:42:25.521Z,8.83
2017-12-16T05:43:06.068Z,8.87
2017-12-16T05:43:46.742Z,8.94
2017-12-16T05:44:27.258Z,8.83
2017-12-16T05:45:07.771Z,8.87
2017-12-16T05:45:48.326Z,8.81
2017-12-16T05:46:28.970Z,8.89
2017-12-16T05:47:09.550Z,8.92
2017-12-16T05:47:50.200Z,8.84
2017-12-16T05:48:30.755Z,8.91
2017-12-16T05:49:11.422Z,8.95
2017-12-16T05:49:51.937Z,8.91
2017-12-16T05:50:32.553Z,8.96
2017-12-16T05:51:13.189Z,8.96
2017-12-16T05:51:53.739Z,8.98
2017-12-16T05:52:34.297Z,8.92
2017-12-16T05:53:14.852Z,8.92
2017-12-16T05:53:55.361Z,8.94
2017-12-16T05:54:36.080Z,8.89
2017-12-16T05:55:16.813Z,8.73
2017-12-16T05:55:57.440Z,8.8
2017-12-16T05:56:38.163Z,8.87
2017-12-16T05:57:18.762Z,8.87
2017-12-16T05:57:59.317Z,8.84
2017-12-16T05:58:40.055Z,8.95
2017-12-16T05:59:20.507Z,8.79
2017-12-16T06:00:01.348Z,8.95
2017-12-16T06:00:41.830Z,8.91
2017-12-16T06:01:22.364Z,8.89
2017-12-16T06:02:02.932Z,8.92
2017-12-16T06:02:43.628Z,8.84
2017-12-16T06:03:24.275Z,8.71
2017-12-16T06:04:04.994Z,8.77
2017-12-16T06:04:45.521Z,8.86
2017-12-16T06:05:26.088Z,8.87
2017-12-16T06:06:06.645Z,8.86
2017-12-16T06:06:47.350Z,8.84
2017-12-16T06:07:27.933Z,8.89
2017-12-16T06:08:08.649Z,8.89
2017-12-16T06:08:49.345Z,8.91
2017-12-16T06:09:29.985Z,8.89
2017-12-16T06:10:10.718Z,8.84
2017-12-16T06:10:51.294Z,8.81
2017-12-16T06:11:31.892Z,8.87
2017-12-16T06:12:12.493Z,8.84
2017-12-16T06:12:53.032Z,8.86
2017-12-16T06:13:33.740Z,8.87
2017-12-16T06:14:14.317Z,8.74
2017-12-16T06:14:54.837Z,8.74
2017-12-16T06:15:35.497Z,8.63
2017-12-16T06:16:16.832Z,8.73
2017-12-16T06:16:57.406Z,8.76
2017-12-16T06:17:38.063Z,8.79
2017-12-16T06:18:18.757Z,8.87
2017-12-16T06:18:59.347Z,8.92
2017-12-16T06:19:39.893Z,8.94
2017-12-16T06:20:20.471Z,8.83
2017-12-16T06:21:01.026Z,8.86
2017-12-16T06:21:41.542Z,8.89
2017-12-16T06:22:22.086Z,8.81
2017-12-16T06:23:02.641Z,8.76
2017-12-16T06:23:43.708Z,8.8
2017-12-16T06:24:24.232Z,8.73
2017-12-16T06:25:04.796Z,8.77
2017-12-16T06:25:45.282Z,8.73
2017-12-16T06:26:25.834Z,8.74
2017-12-16T06:27:06.345Z,8.77
2017-12-16T06:27:46.920Z,8.84
2017-12-16T06:28:27.560Z,8.79
2017-12-16T06:29:07.972Z,8.81
2017-12-16T06:29:48.511Z,8.79
2017-12-16T06:30:29.116Z,8.83
2017-12-16T06:31:09.613Z,8.68
2017-12-16T06:31:50.220Z,8.86
2017-12-16T06:32:31.807Z,8.74
2017-12-16T06:33:11.417Z,8.79
2017-12-16T06:33:53.723Z,8.81
2017-12-16T06:34:34.278Z,8.81
2017-12-16T06:35:14.815Z,8.73
2017-12-16T06:35:55.344Z,8.84
2017-12-16T06:36:35.870Z,8.87
2017-12-16T06:37:16.354Z,8.86
2017-12-16T06:37:56.989Z,8.87
2017-12-16T06:38:37.516Z,8.84
2017-12-16T06:39:18.081Z,8.79
2017-12-16T06:39:58.635Z,8.73
2017-12-16T06:40:39.205Z,8.74
2017-12-16T06:41:19.787Z,8.7
2017-12-16T06:42:00.371Z,8.68
2017-12-16T06:42:41.103Z,8.71
2017-12-16T06:43:21.640Z,8.8
2017-12-16T06:44:02.197Z,8.7
2017-12-16T06:44:42.724Z,8.74
2017-12-16T06:45:23.273Z,8.79
2017-12-16T06:46:03.910Z,8.77
2017-12-16T06:46:44.449Z,8.83
2017-12-16T06:47:25.033Z,8.74
2017-12-16T06:48:05.500Z,8.73
2017-12-16T06:48:46.116Z,8.74
2017-12-16T06:49:26.692Z,8.74
2017-12-16T06:50:07.246Z,8.66
2017-12-16T06:50:49.154Z,8.73
2017-12-16T06:51:30.065Z,8.79
2017-12-16T06:52:10.674Z,8.74
2017-12-16T06:52:51.181Z,8.76
2017-12-16T06:53:31.762Z,8.73
2017-12-16T06:54:12.287Z,8.76
2017-12-16T06:54:52.812Z,8.73
2017-12-16T06:55:33.338Z,8.77
2017-12-16T06:56:13.849Z,8.81
2017-12-16T06:56:54.457Z,8.87
2017-12-16T06:57:35.116Z,8.74
2017-12-16T06:58:15.937Z,8.71
2017-12-16T06:58:56.468Z,8.8
2017-12-16T06:59:37.014Z,8.71
2017-12-16T07:00:17.561Z,8.76
2017-12-16T07:00:58.057Z,8.63
2017-12-16T07:01:38.619Z,8.77
2017-12-16T07:02:19.161Z,8.62
2017-12-16T07:03:00.270Z,8.74
2017-12-16T07:03:40.841Z,8.73
2017-12-16T07:04:21.395Z,8.74
2017-12-16T07:05:01.939Z,8.74
2017-12-16T07:05:42.457Z,8.77
2017-12-16T07:06:23.089Z,8.73
2017-12-16T07:07:03.633Z,8.71
2017-12-16T07:07:44.250Z,8.66
2017-12-16T07:08:24.737Z,8.7
2017-12-16T07:09:05.292Z,8.68
2017-12-16T07:09:45.864Z,8.68
2017-12-16T07:10:26.379Z,8.73
2017-12-16T07:11:06.917Z,8.71
2017-12-16T07:11:47.495Z,8.61
2017-12-16T07:12:28.102Z,8.66
2017-12-16T07:13:08.559Z,8.73
2017-12-16T07:13:49.083Z,8.68
2017-12-16T07:14:29.640Z,8.77
2017-12-16T07:15:10.249Z,8.74
2017-12-16T07:15:50.754Z,8.74
2017-12-16T07:16:31.287Z,8.68
2017-12-16T07:17:11.833Z,8.74
2017-12-16T07:17:52.501Z,8.68
2017-12-16T07:18:33.022Z,8.68
2017-12-16T07:19:13.607Z,8.63
2017-12-16T07:19:58.016Z,8.7
2017-12-16T07:20:38.519Z,8.65
2017-12-16T07:21:19.081Z,8.68
2017-12-16T07:22:03.427Z,8.8
2017-12-16T07:22:43.948Z,8.68
2017-12-16T07:23:24.521Z,8.63
2017-12-16T07:24:05.034Z,8.7
2017-12-16T07:24:45.594Z,8.68
2017-12-16T07:25:26.137Z,8.7
2017-12-16T07:26:06.629Z,8.73
2017-12-16T07:26:47.198Z,8.71
2017-12-16T07:27:28.824Z,8.79
2017-12-16T07:28:09.465Z,8.81
2017-12-16T07:28:49.984Z,8.76
2017-12-16T07:29:30.562Z,8.73
2017-12-16T07:30:11.113Z,8.68
2017-12-16T07:30:51.605Z,8.74
2017-12-16T07:31:32.190Z,8.8
2017-12-16T07:32:12.778Z,8.84
2017-12-16T07:32:53.261Z,8.81
2017-12-16T07:33:33.812Z,8.92
2017-12-16T07:34:15.804Z,8.83
2017-12-16T07:34:56.344Z,8.79
2017-12-16T07:35:36.858Z,8.83
2017-12-16T07:36:17.505Z,8.8
2017-12-16T07:36:59.077Z,8.91
2017-12-16T07:37:43.310Z,8.86
2017-12-16T07:38:23.425Z,8.94
2017-12-16T07:39:04.324Z,8.81
2017-12-16T07:39:45.702Z,8.87
2017-12-16T07:40:29.979Z,8.84
2017-12-16T07:41:19.253Z,8.87
2017-12-16T07:43:08.369Z,8.79
2017-12-16T07:45:08.820Z,8.83
2017-12-16T07:45:49.607Z,8.87
2017-12-16T07:46:30.155Z,8.8
2017-12-16T07:47:10.813Z,8.83
2017-12-16T07:47:51.232Z,8.84
2017-12-16T07:48:35.474Z,8.83
2017-12-16T07:49:23.995Z,8.86
2017-12-16T07:50:21.060Z,8.86
2017-12-16T07:51:08.185Z,8.81
2017-12-16T07:51:49.133Z,8.95
2017-12-16T07:52:30.053Z,9.01
2017-12-16T07:53:11.804Z,8.96
2017-12-16T07:53:52.295Z,8.86
2017-12-16T07:54:32.879Z,8.83
2017-12-16T07:55:15.109Z,8.84
2017-12-16T07:55:55.655Z,8.83
2017-12-16T07:56:36.426Z,8.83
2017-12-16T07:57:17.085Z,8.83
2017-12-16T07:57:57.639Z,8.83
2017-12-16T07:58:38.141Z,8.83
2017-12-16T07:59:19.811Z,8.77
2017-12-16T08:01:22.996Z,8.94
2017-12-16T08:02:04.567Z,8.95
2017-12-16T08:02:44.984Z,9.04
2017-12-16T08:03:25.586Z,8.99
2017-12-16T08:04:06.725Z,9.01
2017-12-16T08:04:47.314Z,8.83
2017-12-16T08:05:27.940Z,8.92
2017-12-16T08:06:08.526Z,8.92
2017-12-16T08:06:57.140Z,8.86
2017-12-16T08:07:36.423Z,8.84
2017-12-16T08:08:16.947Z,8.91
2017-12-16T08:08:57.510Z,8.87
2017-12-16T08:09:38.268Z,8.95
2017-12-16T08:10:18.861Z,8.86
2017-12-16T08:11:01.213Z,8.84
2017-12-16T08:11:41.019Z,8.84
2017-12-16T08:12:21.600Z,8.87
2017-12-16T08:13:02.216Z,8.84
2017-12-16T08:13:42.835Z,8.84
2017-12-16T08:14:23.624Z,8.83
2017-12-16T08:15:04.548Z,8.89
2017-12-16T08:15:45.096Z,8.95
2017-12-16T08:16:26.929Z,8.92
2017-12-16T08:17:07.559Z,8.96
2017-12-16T08:17:48.057Z,8.98
2017-12-16T08:18:28.621Z,8.87
2017-12-16T08:19:09.748Z,8.86
2017-12-16T08:19:50.393Z,8.94
2017-12-16T08:20:33.830Z,9.01
2017-12-16T08:21:15.907Z,8.91
2017-12-16T08:21:56.446Z,8.8
2017-12-16T08:22:36.970Z,8.95
2017-12-16T08:23:17.599Z,8.98
2017-12-16T08:23:58.070Z,9.02
2017-12-16T08:24:38.644Z,9.08
2017-12-16T08:25:19.172Z,9.04
2017-12-16T08:27:23.671Z,9.08
2017-12-16T08:28:04.226Z,9.17
2017-12-16T08:28:44.762Z,9.23
2017-12-16T08:29:25.350Z,9.28
2017-12-16T08:30:05.934Z,9.17
2017-12-16T08:30:46.423Z,9.17
2017-12-16T08:31:27.052Z,9.02
2017-12-16T08:32:07.545Z,9.13
2017-12-16T08:32:48.059Z,9.17
2017-12-16T08:33:28.637Z,9.14
2017-12-16T08:34:09.251Z,9.1
2017-12-16T08:34:49.726Z,9.17
2017-12-16T08:35:30.310Z,9.14
2017-12-16T08:36:10.837Z,9.02
2017-12-16T08:36:51.397Z,9.08
2017-12-16T08:37:31.963Z,9.1
2017-12-16T08:38:12.462Z,9.08
2017-12-16T08:38:53.036Z,9.11
2017-12-16T08:39:33.609Z,9.11
2017-12-16T08:40:14.101Z,9.05
2017-12-16T08:40:54.691Z,9.05
2017-12-16T08:41:35.223Z,9.11
2017-12-16T08:42:15.789Z,9.04
2017-12-16T08:42:56.365Z,9.11
2017-12-16T08:43:36.831Z,9.17
2017-12-16T08:44:17.385Z,9.17
2017-12-16T08:44:57.916Z,9.28
2017-12-16T08:45:38.533Z,9.24
2017-12-16T08:46:18.983Z,9.33
2017-12-16T08:46:59.540Z,9.39
2017-12-16T08:47:40.071Z,9.38
2017-12-16T08:48:20.571Z,9.39
2017-12-16T08:49:01.087Z,9.35
2017-12-16T08:49:41.573Z,9.42
2017-12-16T08:50:22.135Z,9.33
2017-12-16T08:51:02.684Z,9.38
2017-12-16T08:51:43.256Z,9.43
2017-12-16T08:52:23.807Z,9.4
2017-12-16T08:53:04.320Z,9.35
2017-12-16T08:53:44.936Z,9.42
2017-12-16T08:54:25.492Z,9.39
2017-12-16T08:55:06.466Z,9.36
2017-12-16T08:55:46.923Z,9.39
2017-12-16T08:56:27.480Z,9.38
2017-12-16T08:57:08.101Z,9.33
2017-12-16T08:57:48.597Z,9.13
2017-12-16T08:58:29.178Z,9.1
2017-12-16T08:59:09.844Z,9.05
2017-12-16T08:59:50.370Z,9.02
2017-12-16T09:00:30.831Z,8.92
2017-12-16T09:01:11.905Z,8.92
2017-12-16T09:01:52.907Z,8.95
2017-12-16T09:02:33.204Z,8.91
2017-12-16T09:03:13.799Z,8.92
2017-12-16T09:03:54.360Z,8.94
2017-12-16T09:04:34.897Z,8.94
2017-12-16T09:05:15.439Z,8.96
2017-12-16T09:05:56.085Z,9.08
2017-12-16T09:06:37.029Z,8.95
2017-12-16T09:07:17.868Z,9.04
2017-12-16T09:07:58.578Z,9.1